Time;durP1;ratioP1;P1;durP2;ratioP2;P2;SDS_P1;SDS_P2;PMS_P1;PMS_P2;Temp;Humidity;BMP_temperature;BMP_pressure;BME280_temperature;BME280_humidity;BME280_pressure;Samples;Min_cycle;Max_cycle;Signal;HPM_P1;HPM_P2
2022/04/12 00:01:03;;;;;;;3.15;2.25;;;;;;;7.96;nan;99164.09;5005810;28;20319;-72
2022/04/12 00:03:29;;;;;;;2.08;1.88;;;;;;;7.94;nan;99161.59;5008887;28;20203;-71
2022/04/12 00:05:54;;;;;;;3.27;2.40;;;;;;;7.91;nan;99161.78;5010194;28;20234;-76
2022/04/12 00:08:20;;;;;;;3.20;2.70;;;;;;;7.91;nan;99161.78;5005307;28;20198;-72
2022/04/12 00:10:48;;;;;;;2.80;2.30;;;;;;;7.89;nan;99157.56;5005373;28;20217;-77
2022/04/12 00:13:14;;;;;;;2.38;2.00;;;;;;;7.87;nan;99165.50;5005580;28;20232;-78
2022/04/12 00:15:39;;;;;;;2.10;1.90;;;;;;;7.86;nan;99157.78;5010661;28;20226;-75
2022/04/12 00:20:49;;;;;;;3.88;2.92;;;;;;;7.81;nan;99154.59;5010827;28;20478;-71
2022/04/12 00:23:15;;;;;;;2.80;2.42;;;;;;;7.73;nan;99170.72;5006691;28;20507;-73
2022/04/12 00:25:44;;;;;;;3.20;2.90;;;;;;;7.64;nan;99159.03;5010487;28;20256;-72
2022/04/12 00:28:10;;;;;;;2.70;2.47;;;;;;;7.56;nan;99156.03;5009581;28;20213;-74
2022/04/12 00:30:36;;;;;;;3.10;2.60;;;;;;;7.50;nan;99169.44;5008112;28;20217;-74
2022/04/12 00:33:01;;;;;;;4.23;2.50;;;;;;;7.42;nan;99154.19;5007970;28;20214;-73
2022/04/12 00:35:27;;;;;;;3.50;2.57;;;;;;;7.39;nan;99153.53;5007903;28;20372;-73
2022/04/12 00:37:53;;;;;;;3.83;2.53;;;;;;;7.30;nan;99155.75;5010378;28;20214;-72
2022/04/12 00:40:20;;;;;;;3.42;3.00;;;;;;;7.19;nan;99157.31;5006364;28;20217;-71
2022/04/12 00:42:47;;;;;;;3.55;3.20;;;;;;;7.12;nan;99154.19;5006720;28;20213;-77
2022/04/12 00:45:12;;;;;;;3.08;2.72;;;;;;;7.10;nan;99163.88;5006485;28;20229;-76
2022/04/12 00:47:39;;;;;;;5.20;2.63;;;;;;;7.11;nan;99169.97;5008305;28;20210;-76
2022/04/12 00:50:06;;;;;;;4.40;3.17;;;;;;;7.11;nan;99165.56;5005612;28;20217;-72
2022/04/12 00:52:36;;;;;;;4.10;3.15;;;;;;;7.11;nan;99165.56;5009373;28;20207;-77
2022/04/12 00:55:03;;;;;;;4.63;3.30;;;;;;;7.07;nan;99164.91;5022116;28;20289;-77
2022/04/12 00:57:30;;;;;;;4.90;3.05;;;;;;;7.02;nan;99160.84;5002521;28;20215;-76
2022/04/12 00:59:58;;;;;;;3.05;2.75;;;;;;;7.00;nan;99162.72;5008787;28;20210;-72
2022/04/12 01:02:24;;;;;;;4.68;4.00;;;;;;;7.02;nan;99166.06;5016912;28;20483;-72
2022/04/12 01:04:50;;;;;;;2.90;2.60;;;;;;;7.02;nan;99158.25;5006453;28;20233;-72
2022/04/12 01:07:15;;;;;;;3.83;3.40;;;;;;;7.02;nan;99163.47;5007523;28;20215;-77
2022/04/12 01:09:40;;;;;;;4.60;3.17;;;;;;;7.02;nan;99164.31;5005736;28;20215;-70
2022/04/12 01:12:09;;;;;;;5.80;3.43;;;;;;;7.02;nan;99166.06;5007189;28;20225;-74
2022/04/12 01:14:35;;;;;;;3.40;3.10;;;;;;;7.00;nan;99162.72;5005516;28;20217;-73
2022/04/12 01:17:04;;;;;;;4.97;3.27;;;;;;;6.95;nan;99159.53;5005219;28;20675;-72
2022/04/12 01:19:30;;;;;;;3.38;2.95;;;;;;;6.93;nan;99153.53;5008167;28;20954;-76
2022/04/12 01:22:02;;;;;;;3.40;2.90;;;;;;;6.87;nan;99160.78;5004838;28;20272;-76
2022/04/12 01:24:29;;;;;;;2.88;2.63;;;;;;;6.81;nan;99148.09;5005529;28;20675;-72
2022/04/12 01:26:55;;;;;;;3.35;2.17;;;;;;;6.76;nan;99160.53;5004912;28;20619;-74
2022/04/12 01:29:22;;;;;;;2.97;2.67;;;;;;;6.73;nan;99160.72;5007718;28;20664;-77
2022/04/12 01:31:48;;;;;;;1.98;1.88;;;;;;;6.69;nan;99158.34;5007161;28;20203;-76
2022/04/12 01:34:13;;;;;;;3.90;2.20;;;;;;;6.64;nan;99155.97;5006179;28;20202;-77
2022/04/12 01:36:39;;;;;;;2.50;2.30;;;;;;;6.64;nan;99151.63;5002399;28;20250;-73
2022/04/12 01:39:04;;;;;;;3.57;2.57;;;;;;;6.64;nan;99149.03;4997722;28;20568;-73
2022/04/12 01:41:30;;;;;;;2.83;2.30;;;;;;;6.64;nan;99159.47;5005291;28;20265;-75
2022/04/12 01:43:56;;;;;;;3.08;2.03;;;;;;;6.62;nan;99157.84;5006954;28;20490;-73
2022/04/12 01:46:22;;;;;;;2.33;2.10;;;;;;;6.55;nan;99149.50;5004104;28;20625;-74
2022/04/12 01:48:49;;;;;;;3.47;2.50;;;;;;;6.52;nan;99154.06;5004955;28;20460;-76
2022/04/12 01:51:15;;;;;;;2.35;2.15;;;;;;;6.46;nan;99152.63;5006355;28;20226;-71
2022/04/12 01:53:41;;;;;;;3.10;2.40;;;;;;;6.43;nan;99144.97;5001270;28;20502;-78
2022/04/12 01:56:06;;;;;;;2.63;2.30;;;;;;;6.42;nan;99146.72;5006151;28;20241;-75
2022/04/12 01:58:32;;;;;;;3.33;2.50;;;;;;;6.42;nan;99148.47;5003402;28;20572;-74
2022/04/12 02:00:58;;;;;;;2.20;1.90;;;;;;;6.33;nan;99142.00;5004983;28;20219;-73
2022/04/12 02:03:24;;;;;;;2.60;2.40;;;;;;;6.29;nan;99147.47;5001726;28;20805;-73
2022/04/12 02:05:50;;;;;;;3.00;2.70;;;;;;;6.29;nan;99144.84;5005435;28;20218;-74
2022/04/12 02:08:15;;;;;;;2.90;2.20;;;;;;;6.30;nan;99147.38;5002438;28;20455;-75
2022/04/12 02:10:40;;;;;;;4.03;2.87;;;;;;;6.31;nan;99138.63;5005833;28;20785;-74
2022/04/12 02:13:06;;;;;;;2.70;2.20;;;;;;;6.28;nan;99144.00;5003303;28;21154;-73
2022/04/12 02:15:33;;;;;;;2.57;2.00;;;;;;;6.25;nan;99141.56;5004660;28;20253;-73
2022/04/12 02:17:59;;;;;;;3.15;2.30;;;;;;;6.20;nan;99140.97;5003547;28;20653;-73
2022/04/12 02:20:24;;;;;;;3.73;3.17;;;;;;;6.14;nan;99146.53;5005218;28;20290;-76
2022/04/12 02:22:49;;;;;;;3.63;2.27;;;;;;;6.06;nan;99148.69;5005503;28;20211;-76
2022/04/12 02:25:15;;;;;;;3.00;2.47;;;;;;;6.00;nan;99143.81;5010178;28;20245;-71
2022/04/12 02:27:41;;;;;;;5.00;2.60;;;;;;;5.96;nan;99143.09;5009886;28;20272;-76
2022/04/12 02:30:07;;;;;;;3.23;2.93;;;;;;;5.91;nan;99139.84;5005171;28;20226;-71
2022/04/12 02:32:32;;;;;;;3.08;2.60;;;;;;;5.92;nan;99139.78;5006680;28;21151;-74
2022/04/12 02:35:00;;;;;;;5.00;2.93;;;;;;;5.91;nan;99132.03;5007228;28;20541;-72
2022/04/12 02:37:26;;;;;;;6.03;2.95;;;;;;;5.92;nan;99137.19;5008545;28;20214;-73
2022/04/12 02:39:52;;;;;;;3.25;2.95;;;;;;;5.92;nan;99133.75;5006220;28;20417;-76
2022/04/12 02:42:18;;;;;;;3.43;3.13;;;;;;;5.93;nan;99132.81;5006712;28;20266;-77
2022/04/12 02:44:43;;;;;;;4.97;2.20;;;;;;;5.93;nan;99127.59;5010124;28;20670;-72
2022/04/12 02:47:08;;;;;;;6.20;2.50;;;;;;;5.91;nan;99127.69;5007838;28;20382;-76
2022/04/12 02:49:34;;;;;;;3.53;2.43;;;;;;;5.92;nan;99131.97;5006062;28;20207;-76
2022/04/12 02:51:59;;;;;;;4.00;2.57;;;;;;;5.90;nan;99133.81;5005269;28;20447;-73
2022/04/12 02:54:25;;;;;;;5.10;2.63;;;;;;;5.87;nan;99133.13;5007966;28;20211;-75
2022/04/12 02:56:50;;;;;;;2.80;2.53;;;;;;;5.80;nan;99131.75;5008203;28;20617;-76
2022/04/12 02:59:15;;;;;;;3.90;3.30;;;;;;;5.77;nan;99132.75;5008545;28;20596;-75
2022/04/12 03:01:41;;;;;;;3.67;3.10;;;;;;;5.73;nan;99126.88;5005547;28;20393;-73
2022/04/12 03:04:06;;;;;;;4.80;2.83;;;;;;;5.72;nan;99129.53;5008276;28;20545;-76
2022/04/12 03:06:32;;;;;;;1.83;1.73;;;;;;;5.68;nan;99123.66;5008158;28;20226;-75
2022/04/12 03:08:57;;;;;;;6.20;2.77;;;;;;;5.69;nan;99117.50;5005118;28;20340;-73
2022/04/12 03:11:22;;;;;;;3.17;2.60;;;;;;;5.70;nan;99118.38;5007218;28;20210;-76
2022/04/12 03:13:48;;;;;;;2.43;2.17;;;;;;;5.72;nan;99119.94;5006906;28;20202;-73
2022/04/12 03:16:14;;;;;;;3.27;2.27;;;;;;;5.76;nan;99121.50;5009917;28;20265;-74
2022/04/12 03:18:39;;;;;;;3.60;2.47;;;;;;;5.76;nan;99121.50;5008110;28;20468;-73
2022/04/12 03:21:05;;;;;;;3.53;2.87;;;;;;;5.74;nan;99125.94;5006037;28;20544;-71
2022/04/12 03:23:30;;;;;;;2.80;2.60;;;;;;;5.73;nan;99121.66;5005258;28;21556;-72
2022/04/12 03:25:56;;;;;;;3.77;3.20;;;;;;;5.70;nan;99120.97;5008203;28;20585;-73
2022/04/12 03:28:21;;;;;;;3.20;2.33;;;;;;;5.65;nan;99118.59;5007336;28;20199;-71
2022/04/12 03:30:47;;;;;;;3.83;3.17;;;;;;;5.63;nan;99120.44;5004778;28;20858;-71
2022/04/12 03:33:12;;;;;;;3.20;2.90;;;;;;;5.62;nan;99112.72;5008583;28;20298;-72
2022/04/12 03:35:38;;;;;;;5.03;3.20;;;;;;;5.63;nan;99114.38;5006136;28;20869;-74
2022/04/12 03:38:04;;;;;;;8.20;4.30;;;;;;;5.61;nan;99109.25;5005350;28;20401;-75
2022/04/12 03:40:31;;;;;;;10.13;5.90;;;;;;;5.60;nan;99118.00;5007460;28;20688;-74
2022/04/12 03:43:01;;;;;;;4.80;4.40;;;;;;;5.62;nan;99117.94;5007229;28;20700;-77
2022/04/12 03:45:27;;;;;;;7.18;4.68;;;;;;;5.61;nan;99118.81;5003147;28;20481;-75
2022/04/12 03:47:53;;;;;;;9.48;6.93;;;;;;;5.58;nan;99125.03;5003989;28;20264;-76
2022/04/12 03:50:18;;;;;;;9.63;6.20;;;;;;;5.54;nan;99134.78;5004821;28;20206;-74
2022/04/12 03:52:44;;;;;;;17.87;10.43;;;;;;;5.54;nan;99121.75;5009952;28;20890;-71
2022/04/12 03:55:12;;;;;;;13.20;10.00;;;;;;;5.55;nan;99131.25;5007539;28;20296;-71
2022/04/12 03:57:38;;;;;;;16.60;10.25;;;;;;;5.54;nan;99118.31;5004573;28;20973;-72
2022/04/12 04:00:08;;;;;;;12.25;8.15;;;;;;;5.51;nan;99124.53;5005498;28;20207;-75
2022/04/12 04:02:35;;;;;;;10.05;6.43;;;;;;;5.48;nan;99124.69;5003765;28;20214;-77
2022/04/12 04:05:01;;;;;;;14.13;8.55;;;;;;;5.42;nan;99117.16;5009088;28;20226;-72
2022/04/12 04:07:27;;;;;;;17.03;8.30;;;;;;;5.37;nan;99119.13;5005781;28;20207;-72
2022/04/12 04:09:53;;;;;;;15.82;9.07;;;;;;;5.34;nan;99119.31;5006069;28;20467;-71
2022/04/12 04:12:22;;;;;;;16.77;9.98;;;;;;;5.31;nan;99119.47;5003454;28;20269;-79
2022/04/12 04:14:51;;;;;;;11.73;7.72;;;;;;;5.27;nan;99123.16;5010548;28;20250;-73
2022/04/12 04:17:17;;;;;;;7.65;5.47;;;;;;;5.21;nan;99116.50;5007563;28;20313;-73
2022/04/12 04:19:42;;;;;;;7.60;5.60;;;;;;;5.16;nan;99115.00;5007616;28;20234;-71
2022/04/12 04:22:08;;;;;;;7.87;4.97;;;;;;;5.14;nan;99116.84;5007063;28;20331;-73
2022/04/12 04:24:33;;;;;;;14.27;6.00;;;;;;;5.15;nan;99114.16;5004857;28;20229;-71
2022/04/12 04:26:58;;;;;;;24.33;12.27;;;;;;;5.17;nan;99109.72;5004879;28;20247;-71
2022/04/12 04:29:27;;;;;;;28.57;13.53;;;;;;;5.14;nan;99111.66;5002836;28;20211;-75
2022/04/12 04:31:52;;;;;;;14.82;9.32;;;;;;;5.14;nan;99119.47;5003165;28;20489;-71
2022/04/12 04:34:18;;;;;;;17.60;9.47;;;;;;;5.13;nan;99116.03;5004798;28;20483;-71
2022/04/12 04:36:44;;;;;;;20.80;11.77;;;;;;;5.12;nan;99118.69;5004151;28;20230;-72
2022/04/12 04:39:09;;;;;;;18.77;11.63;;;;;;;5.12;nan;99121.28;5002891;28;20229;-74
2022/04/12 04:41:34;;;;;;;15.30;8.77;;;;;;;5.10;nan;99119.63;4962476;28;20570;-71
2022/04/12 04:44:00;;;;;;;10.87;8.63;;;;;;;5.08;nan;99118.84;4963968;28;20212;-74
2022/04/12 04:46:26;;;;;;;13.83;7.30;;;;;;;5.06;nan;99115.47;4966932;28;20259;-76
2022/04/12 04:48:51;;;;;;;10.27;5.70;;;;;;;5.00;nan;99110.56;4967540;28;20554;-73
2022/04/12 04:51:17;;;;;;;6.40;4.97;;;;;;;4.93;nan;99108.34;4963968;28;20287;-76
2022/04/12 04:53:45;;;;;;;7.40;4.83;;;;;;;4.91;nan;99112.75;4963900;28;20544;-76
2022/04/12 04:56:10;;;;;;;8.95;6.45;;;;;;;4.89;nan;99123.25;4963804;28;20251;-75
2022/04/12 04:58:36;;;;;;;5.97;3.40;;;;;;;4.88;nan;99119.78;4976231;28;20247;-72
2022/04/12 05:01:01;;;;;;;11.83;8.60;;;;;;;4.87;nan;99110.31;4987146;28;20324;-72
2022/04/12 05:03:29;;;;;;;12.83;8.43;;;;;;;4.87;nan;99117.28;4983219;28;20206;-74
2022/04/12 05:05:55;;;;;;;13.00;7.35;;;;;;;4.90;nan;99114.53;4985177;28;20854;-74
2022/04/12 05:08:20;;;;;;;12.53;6.70;;;;;;;4.99;nan;99114.06;4984605;28;20207;-73
2022/04/12 05:10:45;;;;;;;6.23;4.60;;;;;;;5.13;nan;99107.34;4985328;28;20924;-73
2022/04/12 05:13:11;;;;;;;8.33;5.50;;;;;;;5.25;nan;99110.19;4984133;28;20207;-73
2022/04/12 05:15:36;;;;;;;13.00;7.77;;;;;;;5.41;nan;99109.44;4983116;28;20739;-72
2022/04/12 05:18:02;;;;;;;11.30;7.43;;;;;;;5.62;nan;99104.91;4983143;28;20651;-75
2022/04/12 05:20:28;;;;;;;6.47;4.93;;;;;;;5.84;nan;99110.69;4983261;28;20208;-73
2022/04/12 05:22:54;;;;;;;10.30;5.07;;;;;;;6.04;nan;99111.41;4982672;28;20214;-75
2022/04/12 05:25:20;;;;;;;5.90;3.53;;;;;;;6.18;nan;99116.72;4984987;28;20203;-75
2022/04/12 05:27:45;;;;;;;3.85;3.55;;;;;;;6.28;nan;99111.88;4983111;28;20882;-72
2022/04/12 05:30:13;;;;;;;4.27;3.20;;;;;;;6.29;nan;99121.38;4982444;28;20668;-74
2022/04/12 05:32:38;;;;;;;6.33;3.63;;;;;;;6.36;nan;99120.13;4980411;28;20488;-75
2022/04/12 05:35:05;;;;;;;3.87;3.20;;;;;;;6.42;nan;99120.63;4984664;28;20474;-71
2022/04/12 05:37:32;;;;;;;4.60;2.60;;;;;;;6.43;nan;99113.66;4982644;28;20218;-71
2022/04/12 05:39:57;;;;;;;4.50;3.30;;;;;;;6.46;nan;99118.72;4986584;28;20206;-71
2022/04/12 05:42:24;;;;;;;4.87;2.70;;;;;;;6.43;nan;99106.66;4989951;28;20342;-70
2022/04/12 05:44:50;;;;;;;4.70;2.58;;;;;;;6.41;nan;99121.56;4989719;28;20218;-72
2022/04/12 05:47:15;;;;;;;4.03;2.37;;;;;;;6.43;nan;99116.28;4991635;28;20225;-72
2022/04/12 05:49:41;;;;;;;8.63;3.37;;;;;;;6.49;nan;99128.13;5000070;28;20247;-71
2022/04/12 05:52:08;;;;;;;5.73;3.00;;;;;;;6.54;nan;99123.50;4989750;28;20450;-71
2022/04/12 05:54:33;;;;;;;5.78;3.60;;;;;;;6.58;nan;99125.84;4984037;28;20235;-72
2022/04/12 05:56:59;;;;;;;9.63;8.20;;;;;;;6.66;nan;99130.66;4989203;28;20727;-70
2022/04/12 05:59:24;;;;;;;11.13;9.07;;;;;;;6.77;nan;99130.06;4986701;28;20206;-70
2022/04/12 06:01:50;;;;;;;17.63;10.10;;;;;;;6.91;nan;99148.41;4992231;28;20960;-70
2022/04/12 06:04:16;;;;;;;14.07;8.40;;;;;;;7.08;nan;99135.25;4991707;28;20214;-71
2022/04/12 06:06:42;;;;;;;10.63;6.80;;;;;;;7.34;nan;99135.50;4990215;28;20227;-71
2022/04/12 06:09:08;;;;;;;10.30;6.97;;;;;;;7.64;nan;99135.50;4988582;28;20596;-74
2022/04/12 06:11:33;;;;;;;4.97;4.30;;;;;;;8.09;nan;99133.66;4987487;28;20458;-70
2022/04/12 06:13:58;;;;;;;8.40;3.40;;;;;;;8.55;nan;99143.94;4989854;28;20468;-72
2022/04/12 06:16:24;;;;;;;4.60;3.63;;;;;;;9.02;nan;99149.72;4986635;28;20580;-71
2022/04/12 06:18:49;;;;;;;7.03;3.17;;;;;;;9.39;nan;99142.91;4981756;28;20294;-71
2022/04/12 06:21:15;;;;;;;4.73;3.90;;;;;;;9.78;nan;99143.81;4989626;28;20215;-73
2022/04/12 06:23:41;;;;;;;3.50;2.50;;;;;;;10.16;nan;99143.81;4986248;28;20411;-71
2022/04/12 06:26:06;;;;;;;5.43;3.60;;;;;;;10.56;nan;99148.91;4990130;28;20250;-71
2022/04/12 06:28:32;;;;;;;3.90;3.37;;;;;;;10.92;nan;99152.47;4984635;28;20215;-71
2022/04/12 06:31:01;;;;;;;9.30;3.90;;;;;;;11.15;nan;99153.44;4987406;28;20516;-75
2022/04/12 06:33:29;;;;;;;5.65;3.70;;;;;;;11.24;nan;99147.50;4993396;28;20194;-73
2022/04/12 06:35:56;;;;;;;5.93;2.93;;;;;;;11.23;nan;99137.94;4649997;28;10000803;-74
2022/04/12 06:38:21;;;;;;;5.38;4.38;;;;;;;11.26;nan;99142.09;4988276;28;20206;-72
2022/04/12 06:40:49;;;;;;;4.93;3.00;;;;;;;11.21;nan;99154.78;4999778;28;20444;-71
2022/04/12 06:43:15;;;;;;;3.40;2.55;;;;;;;11.18;nan;99153.22;5009910;28;20669;-72
2022/04/12 06:45:41;;;;;;;2.95;2.35;;;;;;;11.12;nan;99158.91;4991446;28;20308;-69
2022/04/12 06:48:06;;;;;;;4.37;3.23;;;;;;;11.00;nan;99149.28;4984075;28;20245;-71
2022/04/12 06:50:33;;;;;;;3.83;3.43;;;;;;;10.87;nan;99151.97;4986411;28;20787;-74
2022/04/12 06:52:59;;;;;;;3.33;3.10;;;;;;;10.77;nan;99141.28;4994933;28;20207;-72
2022/04/12 06:55:26;;;;;;;3.08;2.88;;;;;;;10.71;nan;99141.72;4984704;28;20223;-72
2022/04/12 06:57:51;;;;;;;4.55;2.90;;;;;;;10.68;nan;99136.69;4992224;28;20203;-73
2022/04/12 07:00:17;;;;;;;3.27;2.97;;;;;;;10.67;nan;99142.06;4993756;28;20289;-69
2022/04/12 07:02:43;;;;;;;4.07;3.63;;;;;;;10.62;nan;99140.59;4986901;28;20458;-70
2022/04/12 07:05:09;;;;;;;5.13;3.40;;;;;;;10.66;nan;99137.75;4985405;28;20242;-73
2022/04/12 07:07:36;;;;;;;3.50;2.83;;;;;;;10.71;nan;99133.84;4981486;28;20541;-70
2022/04/12 07:10:07;;;;;;;3.08;2.88;;;;;;;10.81;nan;99134.88;4986428;28;20219;-71
2022/04/12 07:12:32;;;;;;;2.70;2.50;;;;;;;10.98;nan;99140.69;4984959;28;20206;-73
2022/04/12 07:14:58;;;;;;;3.43;3.07;;;;;;;11.06;nan;99141.78;4987619;28;20595;-70
2022/04/12 07:17:23;;;;;;;5.50;2.90;;;;;;;11.16;nan;99141.13;4989442;28;20207;-71
2022/04/12 07:19:49;;;;;;;4.40;3.77;;;;;;;11.28;nan;99138.41;4990099;28;20230;-74
2022/04/12 07:22:14;;;;;;;7.77;6.53;;;;;;;11.40;nan;99131.44;4983535;28;20227;-70
2022/04/12 07:24:40;;;;;;;11.23;6.30;;;;;;;11.48;nan;99125.59;4995618;28;20242;-71
2022/04/12 07:27:05;;;;;;;13.80;8.23;;;;;;;11.64;nan;99131.38;4984566;28;20729;-72
2022/04/12 07:29:31;;;;;;;9.73;6.00;;;;;;;12.06;nan;99125.59;4982855;28;20735;-73
2022/04/12 07:31:57;;;;;;;8.87;6.60;;;;;;;12.55;nan;99124.38;4986175;28;20568;-70
2022/04/12 07:34:22;;;;;;;8.17;6.00;;;;;;;13.04;nan;99134.47;4995492;28;20291;-71
2022/04/12 07:36:53;;;;;;;10.23;6.07;;;;;;;13.63;nan;99135.78;4985766;28;20762;-72
2022/04/12 07:39:22;;;;;;;9.15;5.88;;;;;;;14.21;nan;99129.16;4984631;28;20253;-73
2022/04/12 07:41:48;;;;;;;8.75;7.10;;;;;;;14.72;nan;99129.09;4982210;28;20370;-74
2022/04/12 07:44:14;;;;;;;7.50;5.70;;;;;;;15.15;nan;99125.25;4981894;28;20600;-71
2022/04/12 07:46:40;;;;;;;5.32;4.80;;;;;;;15.44;nan;99116.44;4979869;28;20478;-71
2022/04/12 07:49:05;;;;;;;6.47;5.07;;;;;;;15.81;nan;99115.75;4979131;28;20214;-74
2022/04/12 07:51:31;;;;;;;4.40;4.00;;;;;;;16.26;nan;99117.69;4985830;28;20205;-71
2022/04/12 07:53:56;;;;;;;6.43;5.13;;;;;;;16.30;nan;99105.81;4980879;28;20212;-72
2022/04/12 07:56:22;;;;;;;5.97;5.37;;;;;;;16.19;nan;99106.00;4981235;28;20593;-71
2022/04/12 07:58:47;;;;;;;6.50;5.90;;;;;;;16.27;nan;99108.75;4983586;28;20221;-70
2022/04/12 08:01:13;;;;;;;11.27;8.20;;;;;;;16.57;nan;99100.50;4992446;28;20275;-74
2022/04/12 08:03:40;;;;;;;12.10;8.53;;;;;;;16.99;nan;99102.66;4985747;28;20213;-71
2022/04/12 08:06:05;;;;;;;14.50;12.00;;;;;;;17.44;nan;99103.53;4981699;28;20240;-71
2022/04/12 08:08:32;;;;;;;9.10;7.40;;;;;;;17.66;nan;99096.88;4981146;28;20462;-74
2022/04/12 08:10:58;;;;;;;15.52;11.10;;;;;;;17.84;nan;99088.91;4984810;28;20197;-71
2022/04/12 08:13:23;;;;;;;8.73;7.83;;;;;;;18.09;nan;99087.19;4984177;28;20668;-72
2022/04/12 08:15:49;;;;;;;5.70;4.90;;;;;;;18.31;nan;99084.00;4981793;28;20507;-74
2022/04/12 08:18:14;;;;;;;4.03;3.63;;;;;;;18.55;nan;99087.72;4980992;28;20208;-71
2022/04/12 08:20:40;;;;;;;4.17;3.03;;;;;;;18.80;nan;99091.34;4980068;28;20233;-71
2022/04/12 08:23:06;;;;;;;4.23;2.80;;;;;;;19.06;nan;99093.03;4990841;28;20222;-73
2022/04/12 08:25:31;;;;;;;3.33;2.37;;;;;;;19.29;nan;99090.56;4979102;28;20224;-70
2022/04/12 08:27:57;;;;;;;4.00;2.47;;;;;;;19.38;nan;99086.91;4980973;28;20681;-72
2022/04/12 08:30:22;;;;;;;2.50;2.30;;;;;;;19.59;nan;99083.72;4984241;28;20227;-73
2022/04/12 08:32:48;;;;;;;2.88;2.40;;;;;;;19.94;nan;99079.84;4987557;28;20561;-71
2022/04/12 08:35:13;;;;;;;4.07;2.20;;;;;;;19.94;nan;99073.69;4982706;28;20220;-71
2022/04/12 08:37:39;;;;;;;2.70;2.50;;;;;;;20.11;nan;99070.78;4979127;28;20222;-73
2022/04/12 08:40:05;;;;;;;2.40;2.00;;;;;;;20.26;nan;99076.25;4992648;28;20203;-71
2022/04/12 08:42:31;;;;;;;1.90;1.80;;;;;;;20.28;nan;99073.41;4988861;28;20506;-71
2022/04/12 08:44:58;;;;;;;2.40;1.87;;;;;;;20.15;nan;99070.47;4980823;28;20479;-71
2022/04/12 08:47:23;;;;;;;2.43;1.97;;;;;;;19.88;nan;99073.38;4986834;28;20687;-71
2022/04/12 08:49:49;;;;;;;2.80;2.33;;;;;;;19.59;nan;99071.22;4979702;28;20462;-71
2022/04/12 08:52:14;;;;;;;3.33;2.80;;;;;;;19.31;nan;99077.91;4980256;28;20224;-73
2022/04/12 08:54:41;;;;;;;3.23;2.60;;;;;;;19.21;nan;99076.25;4986063;28;20440;-71
2022/04/12 08:57:08;;;;;;;2.33;2.23;;;;;;;19.16;nan;99078.56;4992510;28;20223;-73
2022/04/12 08:59:35;;;;;;;3.43;2.50;;;;;;;19.05;nan;99083.38;4979321;28;20454;-74
2022/04/12 09:02:00;;;;;;;5.15;3.35;;;;;;;19.02;nan;99082.72;4983029;28;20919;-70
2022/04/12 09:04:27;;;;;;;6.67;3.33;;;;;;;18.90;nan;99083.19;4981015;28;20341;-72
2022/04/12 09:06:58;;;;;;;3.90;2.97;;;;;;;18.73;nan;99075.16;4988297;28;20280;-71
2022/04/12 09:09:28;;;;;;;4.57;2.40;;;;;;;18.53;nan;99087.06;4982488;28;20459;-70
2022/04/12 09:12:03;;;;;;;3.30;2.73;;;;;;;18.56;nan;99081.44;4980562;28;20457;-69
2022/04/12 09:14:43;;;;;;;4.97;4.00;;;;;;;18.57;nan;99080.41;4989396;28;20532;-70
2022/04/12 09:17:13;;;;;;;8.40;4.27;;;;;;;18.51;nan;99087.22;4990487;28;20451;-70
2022/04/12 09:19:40;;;;;;;5.23;4.73;;;;;;;18.44;nan;99080.88;4983245;28;20690;-73
2022/04/12 09:22:11;;;;;;;6.40;5.40;;;;;;;18.52;nan;99085.38;4981976;28;20514;-71
2022/04/12 09:24:42;;;;;;;5.50;4.80;;;;;;;18.56;nan;99084.09;4986049;28;20623;-70
2022/04/12 09:27:15;;;;;;;3.80;3.50;;;;;;;18.47;nan;99088.56;4977652;28;21051;-71
2022/04/12 09:29:46;;;;;;;3.10;2.80;;;;;;;18.41;nan;99097.16;4974128;28;20459;-73
2022/04/12 09:32:14;;;;;;;3.35;3.05;;;;;;;18.53;nan;99087.06;4982793;28;20478;-74
2022/04/12 09:34:41;;;;;;;2.60;2.40;;;;;;;18.55;nan;99087.72;4981076;28;20227;-73
2022/04/12 09:37:37;;;;;;;6.90;3.10;;;;;;;18.59;nan;99083.75;4989534;28;21085;-73
2022/04/12 09:40:05;;;;;;;3.90;3.17;;;;;;;18.73;nan;99080.47;4986014;28;20505;-72
2022/04/12 09:42:49;;;;;;;2.70;2.40;;;;;;;19.03;nan;99075.56;4980495;28;20533;-71
2022/04/12 09:45:22;;;;;;;4.23;3.50;;;;;;;19.31;nan;99069.91;4978693;28;20475;-72
2022/04/12 09:47:51;;;;;;;4.33;3.90;;;;;;;19.37;nan;99055.94;4980581;28;20975;-71
2022/04/12 09:50:20;;;;;;;5.30;2.83;;;;;;;19.37;nan;99056.78;4980961;28;21036;-71
2022/04/12 09:52:53;;;;;;;2.93;2.73;;;;;;;19.49;nan;99056.41;4983934;28;20440;-73
2022/04/12 09:55:38;;;;;;;3.70;2.90;;;;;;;19.66;nan;99050.94;4981601;28;20494;-74
2022/04/12 09:58:09;;;;;;;3.20;2.80;;;;;;;19.77;nan;99051.59;4984260;28;20546;-72
2022/04/12 10:00:36;;;;;;;3.40;2.53;;;;;;;19.88;nan;99052.06;4988959;28;20501;-73
2022/04/12 10:03:06;;;;;;;3.77;3.37;;;;;;;19.87;nan;99057.53;4989296;28;20570;-73
2022/04/12 10:05:32;;;;;;;3.57;2.93;;;;;;;19.91;nan;99044.72;4978018;28;20475;-73
2022/04/12 10:08:01;;;;;;;3.87;2.90;;;;;;;20.02;nan;99044.34;4978656;28;21056;-72
2022/04/12 10:10:27;;;;;;;6.63;2.80;;;;;;;20.17;nan;99047.13;4993592;28;20458;-74
2022/04/12 10:12:54;;;;;;;2.97;2.63;;;;;;;20.30;nan;99044.72;4980965;28;20527;-72
2022/04/12 10:15:21;;;;;;;5.43;3.00;;;;;;;20.23;nan;99046.44;4979384;28;20567;-72
2022/04/12 10:17:48;;;;;;;4.20;3.50;;;;;;;20.08;nan;99039.16;4988155;28;20460;-73
2022/04/12 10:20:15;;;;;;;4.50;3.00;;;;;;;20.15;nan;99049.97;4979348;28;20486;-72
2022/04/12 10:22:41;;;;;;;4.50;2.93;;;;;;;20.20;nan;99044.09;4982253;28;20895;-72
2022/04/12 10:25:09;;;;;;;3.20;2.90;;;;;;;20.32;nan;99037.38;4978626;28;20476;-73
2022/04/12 10:27:35;;;;;;;2.90;2.70;;;;;;;20.32;nan;99032.88;4980767;28;20481;-72
2022/04/12 10:30:21;;;;;;;3.20;2.77;;;;;;;20.40;nan;99032.00;4988178;28;20479;-72
2022/04/12 10:33:02;;;;;;;4.60;3.57;;;;;;;20.43;nan;99018.31;4996963;28;21009;-72
2022/04/12 10:35:51;;;;;;;2.47;2.00;;;;;;;20.46;nan;99023.31;4997617;28;20849;-72
2022/04/12 10:38:18;;;;;;;4.97;1.60;;;;;;;20.50;nan;99011.28;4995675;28;20535;-72
2022/04/12 10:40:46;;;;;;;3.03;2.40;;;;;;;20.53;nan;99016.28;4997683;28;20510;-73
2022/04/12 10:43:21;;;;;;;2.87;2.57;;;;;;;20.58;nan;99012.25;5010858;28;20860;-70
2022/04/12 10:45:49;;;;;;;3.93;3.63;;;;;;;20.59;nan;99011.25;5004897;28;20476;-72
2022/04/12 10:48:23;;;;;;;2.47;2.27;;;;;;;20.68;nan;99010.19;5008721;28;20509;-72
2022/04/12 10:50:53;;;;;;;2.50;1.90;;;;;;;20.71;nan;98999.16;5000492;28;20464;-72
2022/04/12 10:53:37;;;;;;;3.63;2.13;;;;;;;20.70;nan;99000.19;5001675;28;20572;-71
2022/04/12 10:56:10;;;;;;;3.50;2.47;;;;;;;20.46;nan;98995.78;5006749;28;20529;-72
2022/04/12 10:58:36;;;;;;;3.80;2.10;;;;;;;20.28;nan;98990.72;5007927;28;20469;-71
2022/04/12 11:01:03;;;;;;;2.33;1.57;;;;;;;20.31;nan;98988.56;5004264;28;20799;-70
2022/04/12 11:03:41;;;;;;;2.47;1.10;;;;;;;20.44;nan;98985.31;5010598;28;20196;-72
2022/04/12 11:06:11;;;;;;;2.80;1.90;;;;;;;20.45;nan;98976.31;5003559;28;20502;-72
2022/04/12 11:08:48;;;;;;;2.83;1.80;;;;;;;20.60;nan;98976.38;5011050;28;20468;-72
2022/04/12 11:11:41;;;;;;;2.90;1.70;;;;;;;20.68;nan;98972.84;5000095;28;21113;-72
2022/04/12 11:14:27;;;;;;;1.90;1.37;;;;;;;20.66;nan;98972.19;5006542;28;20361;-72
2022/04/12 11:17:06;;;;;;;2.90;1.50;;;;;;;20.68;nan;98965.66;5002324;28;20444;-72
2022/04/12 11:19:47;;;;;;;1.53;1.43;;;;;;;20.69;nan;98963.84;5009785;28;20480;-72
2022/04/12 11:22:17;;;;;;;1.50;1.40;;;;;;;20.62;nan;98968.22;5001192;28;20872;-72
2022/04/12 11:25:03;;;;;;;1.93;1.83;;;;;;;20.56;nan;98964.41;5000213;28;21412;-73
2022/04/12 11:27:28;;;;;;;3.00;2.60;;;;;;;20.61;nan;98964.72;5001343;28;20486;-73
2022/04/12 11:29:57;;;;;;;2.97;2.00;;;;;;;20.62;nan;98960.22;5009125;28;21179;-72
2022/04/12 11:32:25;;;;;;;2.30;1.87;;;;;;;20.71;nan;98961.78;5008406;28;20511;-72
2022/04/12 11:34:51;;;;;;;3.63;2.20;;;;;;;20.85;nan;98955.69;5003818;28;20495;-72
2022/04/12 11:37:16;;;;;;;2.17;1.73;;;;;;;20.88;nan;98955.34;5001440;28;20703;-72
2022/04/12 11:39:44;;;;;;;2.50;1.97;;;;;;;20.73;nan;98955.28;5000225;28;20525;-71
2022/04/12 11:42:14;;;;;;;2.03;1.83;;;;;;;20.63;nan;98953.84;5007499;28;20291;-72
2022/04/12 11:44:50;;;;;;;2.30;1.97;;;;;;;20.71;nan;98946.63;5011488;28;20493;-72
2022/04/12 11:47:17;;;;;;;2.00;1.80;;;;;;;20.81;nan;98953.56;5003361;28;20460;-72
2022/04/12 11:49:43;;;;;;;3.27;2.37;;;;;;;20.89;nan;98946.31;5001203;28;20522;-73
2022/04/12 11:52:14;;;;;;;3.43;2.23;;;;;;;20.91;nan;98948.81;5005793;28;20538;-72
2022/04/12 11:54:45;;;;;;;2.80;2.23;;;;;;;20.90;nan;98947.97;4999563;28;20579;-72
2022/04/12 11:57:20;;;;;;;3.13;2.20;;;;;;;20.89;nan;98940.97;5006911;28;20461;-72